aviador You're here:

KCHO Decoded Metar

CHARLOTTESVILLE in VA, USA
Report Time2018-05-21 23:53:00
UTC Time2018-05-22 00:15:08
Flight Rules vfr VFR
Wind150° at 04 kt
W.Decomp.*RWY 21: 2.5 kt HW 3.2 kt LCW
W.Rank150° ranks 26
Current wind is below 150° avg. (5.0)
Visibility9999 m
Phenomena:N/A
Clouds:Scattered 035 Hf
Expected CloudBase > 2,800 ft AGL from Temp-Dew spread
CeilingNone
Temp26°C (ISA +12)
Dew Point19°C (65% RH)
QNH1020 hPa
Density Alt2,103 ft
Elevation630 ft
Report Wrong Elevation
Raw Report
METAR KCHO 212353Z 15004KT 10SM SCT035 26/19 A3012 RMK AO2 SLP192 T02560194
10289 20256 51005=

Extra information for KCHO:More info

Metar Taf Metar & Taf Last 4 Metars F.Rules Stats Wind Profile Meteogram Temp Stats Airport Information Weather charts Add Link Nearby VenuesMetar ALERT Operation Metar Decoded Social comments

AIRNAV info for KCHO